• Join FlightAware (Why Join?)
  • Login
  • US Flag 
03:57PM EDT


 

Airport Tracker/Info


-or-


 

Live Flight TrackerFlight Track Log ✈ ASA602 ✈ 21-Jun-2013 ✈ KSEA - KLAS

Flight Track Log - Related Links

Times and Time Zones

All times are in EDT time to prevent confusion due to time zone crossing. See the ASA602 flight status page for this flight to view local times or setup timezone preferences in your user account.

Time Position Orientation Groundspeed Altitude Reporting Facility
EDT Latitude Longitude Course Direction KTS MPH feet Rate Location/Type
12:45PM 47.4239 -122.3100 179° South 178 205 1,400  Level Seattle Center
12:46PM 47.3681 -122.3081 179° South 219 252 3,100 2,100 Climbing Seattle Center
12:47PM 47.2697 -122.3103 181° South 263 303 6,500 2,400 Climbing Seattle Center
12:48PM 47.1953 -122.2864 168° South 285 328 8,800 2,220 Climbing Seattle Center
12:49PM 47.1242 -122.2283 151° Southeast 294 338 11,100 1,860 Climbing Seattle Center
12:50PM 47.0408 -122.1614 151° Southeast 346 398 12,700 1,920 Climbing Seattle Center
12:52PM 46.9331 -122.1133 163° South 381 438 15,100 2,340 Climbing Seattle Center
12:53PM 46.8269 -122.0711 165° South 396 456 17,500 2,160 Climbing Seattle Center
12:54PM 46.7139 -122.0269 165° South 405 466 19,500 1,860 Climbing Seattle Center
12:55PM 46.6003 -121.9831 165° South 422 486 21,300 1,740 Climbing Seattle Center
12:56PM 46.4828 -121.9383 165° South 439 505 23,100 1,800 Climbing Seattle Center
12:57PM 46.3625 -121.8925 165° South 449 517 25,000 1,680 Climbing Seattle Center
12:58PM 46.2419 -121.8475 166° South 453 521 26,600 1,320 Climbing Seattle Center
12:59PM 46.1228 -121.8008 165° South 460 529 27,700 1,020 Climbing Seattle Center
01:00PM 45.9956 -121.7508 165° South 474 545 28,700 1,080 Climbing Seattle Center
01:01PM 45.8383 -121.6917 165° South 486 559 29,900 1,260 Climbing Seattle Center
01:02PM 45.7044 -121.6414 165° South 498 573 31,300 1,200 Climbing Seattle Center
01:03PM 45.5725 -121.5914 165° South 494 568 32,400 960 Climbing Seattle Center
01:04PM 45.4394 -121.5414 165° South 497 572 33,300 1,020 Climbing Seattle Center
01:05PM 45.3056 -121.4933 166° South 497 572 34,500 780 Climbing Seattle Center
01:06PM 45.1736 -121.4439 165° South 496 571 35,000 240 Climbing Seattle Center
01:07PM 45.0453 -121.3972 166° South 482 555 35,000  Level Seattle Center
01:08PM 44.9144 -121.3494 165° South 487 560 35,000  Level Seattle Center
01:09PM 44.7836 -121.3031 166° South 488 562 35,000  Level Seattle Center
01:10PM 44.6264 -121.2450 165° South 490 564 35,000  Level Seattle Center
01:11PM 44.4975 -121.1994 166° South 491 565 35,000  Level Seattle Center
01:12PM 44.3653 -121.1522 166° South 490 564 35,000  Level Seattle Center
01:13PM 44.2311 -121.1044 166° South 491 565 35,000  Level Seattle Center
01:14PM 44.0961 -121.0575 166° South 498 573 35,000  Level Seattle Center
01:15PM 43.9614 -121.0089 165° South 501 577 35,000  Level Seattle Center
01:16PM 43.8267 -120.9617 166° South 501 577 35,000  Level Seattle Center
01:17PM 43.6931 -120.9144 166° South 500 575 35,000  Level Seattle Center
01:18PM 43.5444 -120.8650 166° South 501 577 35,000  Level Seattle Center
01:19PM 43.4111 -120.8181 166° South 498 573 35,000  Level Seattle Center
01:20PM 43.2786 -120.7753 167° South 492 566 35,000  Level Seattle Center
01:21PM 43.1444 -120.7275 165° South 495 570 35,000  Level Seattle Center
01:22PM 43.0144 -120.6836 166° South 486 559 35,000  Level Seattle Center
01:23PM 42.8575 -120.6311 166° South 484 557 35,000  Level Seattle Center
01:24PM 42.7286 -120.5872 166° South 480 552 35,000  Level Seattle Center
01:25PM 42.6003 -120.5453 166° South 475 547 35,000  Level Seattle Center
01:26PM 42.4697 -120.4992 165° South 480 552 35,000  Level Seattle Center
01:27PM 42.3406 -120.4478 164° South 482 555 35,000  Level Seattle Center
01:28PM 42.2117 -120.3981 164° South 481 554 35,000  Level Seattle Center
01:29PM 42.0856 -120.3486 164° South 476 548 35,000  Level Seattle Center
01:30PM 41.9581 -120.2983 164° South 476 548 35,000  Level Seattle Center
01:31PM 41.8308 -120.2469 163° South 476 548 35,000  Level Seattle Center
01:32PM 41.7036 -120.1986 164° South 474 545 35,000  Level Seattle Center
01:33PM 41.5725 -120.1517 165° South 483 556 35,000  Level Seattle Center
01:34PM 41.4225 -120.0922 163° South 473 544 35,000  Level Seattle Center
01:35PM 41.2983 -120.0439 164° South 468 539 35,000  Level Seattle Center
01:36PM 41.1764 -119.9947 163° South 461 531 35,000  Level Seattle Center
01:37PM 41.0489 -119.9467 164° South 470 541 35,000  Level Seattle Center
01:38PM 40.9217 -119.8989 164° South 474 545 35,000  Level Seattle Center
01:39PM 40.7942 -119.8522 165° South 474 545 35,000  Level Seattle Center
01:40PM 40.6689 -119.8053 164° South 471 542 35,000  Level Seattle Center
01:42PM 40.5414 -119.7572 164° South 473 544 35,000  Level Seattle Center
01:43PM 40.4153 -119.7117 165° South 472 543 35,000  Level Seattle Center
01:44PM 40.2906 -119.6647 164° South 468 539 35,000  Level Seattle Center
01:45PM 40.1406 -119.6092 164° South 468 539 35,000  Level Seattle Center
01:46PM 40.0156 -119.5636 164° South 468 539 35,000  Level Seattle Center
01:47PM 39.8372 -119.4972 164° South 475 547 35,000  Level Oakland Center
01:48PM 39.7108 -119.4525 165° South 473 544 35,000  Level Oakland Center
01:49PM 39.5828 -119.4058 164° South 478 550 35,000  Level Oakland Center
01:50PM 39.4567 -119.3600 164° South 476 548 35,000  Level Oakland Center
01:51PM 39.3308 -119.3144 164° South 474 545 35,000  Level Oakland Center
01:52PM 39.2106 -119.2483 157° South 482 555 35,000  Level Oakland Center
01:53PM 39.0917 -119.1028 136° Southeast 496 571 35,000  Level Oakland Center
01:54PM 38.9944 -118.9803 136° Southeast 496 571 35,000  Level Oakland Center
01:55PM 38.8969 -118.8603 136° Southeast 490 564 35,000  Level Oakland Center
01:56PM 38.8003 -118.7392 136° Southeast 489 563 35,000  Level Oakland Center
01:57PM 38.7028 -118.6189 136° Southeast 489 563 35,000  Level Oakland Center
01:58PM 38.5878 -118.4767 136° Southeast 482 555 35,000  Level Oakland Center
01:59PM 38.4900 -118.3589 137° Southeast 482 555 35,000  Level Oakland Center
02:00PM 38.3928 -118.2414 137° Southeast 482 555 35,000  Level Oakland Center
02:01PM 38.2947 -118.1217 136° Southeast 486 559 35,000  Level Oakland Center
02:02PM 38.1950 -118.0003 136° Southeast 484 557 35,000  Level Oakland Center
02:03PM 38.0978 -117.8836 137° Southeast 484 557 35,000  Level Oakland Center
02:05PM 38.0006 -117.7686 137° Southeast 483 556 35,000  Level Oakland Center
02:06PM 37.8703 -117.6558 146° Southeast 477 549 35,000 -420 Level Oakland Center
02:07PM 37.7631 -117.5631 146° Southeast 473 544 34,200 -900 Descending Oakland Center
02:08PM 37.6542 -117.4703 146° Southeast 474 545 33,200 -720 Descending Oakland Center
02:08PM 37.5908 -117.4150 145° Southeast 470 541 33,000 -120 Descending Los Angeles Center
02:09PM 37.4861 -117.3256 146° Southeast 460 529 33,000  Level Los Angeles Center
02:10PM 37.3611 -117.2186 146° Southeast 455 524 33,000  Level Los Angeles Center
02:11PM 37.2561 -117.1292 146° Southeast 456 525 33,000  Level Los Angeles Center
02:12PM 37.1478 -117.0389 146° Southeast 464 534 33,000  Level Los Angeles Center
02:13PM 37.0403 -116.9472 146° Southeast 467 537 33,000  Level Los Angeles Center
02:14PM 36.9322 -116.8553 146° Southeast 468 539 33,000  Level Los Angeles Center
02:15PM 36.8236 -116.7639 146° Southeast 470 541 33,000 -1,380 Level Los Angeles Center
02:17PM 36.6936 -116.6553 146° Southeast 469 540 30,200 -2,520 Descending Los Angeles Center
02:18PM 36.5847 -116.5653 146° Southeast 471 542 27,900 -2,100 Descending Los Angeles Center
02:19PM 36.5067 -116.4386 127° Southeast 467 537 25,900 -2,160 Descending Los Angeles Center
02:20PM 36.4361 -116.3122 125° Southeast 453 521 23,500 -2,400 Descending Los Angeles Center
02:21PM 36.3600 -116.1786 125° Southeast 429 494 21,000 -2,580 Descending Los Angeles Center
02:22PM 36.3056 -116.0839 125° Southeast 416 479 18,600 -2,640 Descending Los Angeles Center
02:22PM 36.2478 -115.9825 125° Southeast 392 451 16,300 -1,440 Descending Los Angeles Center
02:23PM 36.1975 -115.8869 123° Southeast 370 426 16,000 -180 Descending Los Angeles Center
02:24PM 36.1581 -115.7719 113° Southeast 343 395 16,000 -720 Level Los Angeles Center
02:25PM 36.1253 -115.6681 111° Southeast 338 389 14,600 -1,440 Descending Los Angeles Center
02:26PM 36.0919 -115.5619 111° Southeast 330 380 13,100 -1,500 Descending Los Angeles Center
02:27PM 36.0564 -115.4567 113° Southeast 320 368 11,600 -1,200 Descending Los Angeles Center
02:28PM 36.0289 -115.3592 109° East 296 341 10,800 -900 Descending Los Angeles Center
02:29PM 36.0261 -115.3064 94° East 293 337 10,300 -1,020 Descending Los Angeles Center
02:29PM 36.0231 -115.2628 95° East 281 323 9,800 -1,080 Descending Los Angeles Center
02:30PM 36.0194 -115.2122 95° East 280 322 9,200 -960 Descending Los Angeles Center
02:31PM 36.0125 -115.1214 95° East 271 312 8,300 -600 Descending Los Angeles Center
02:32PM 36.0081 -115.0408 94° East 249 287 8,000 -660 Descending Los Angeles Center
02:33PM 36.0050 -114.9747 93° East 210 242 7,000 -1,140 Descending Los Angeles Center
02:34PM 36.0408 -114.9358 41° Northeast 210 242 5,700 -1,320 Descending Los Angeles Center
02:35PM 36.0747 -114.9953 305° West 191 220 4,300 -1,200 Descending Los Angeles Center
02:36PM 36.0753 -115.0542 271° West 178 205 3,100 -1,020 Descending Los Angeles Center
02:37PM 36.0744 -115.1233 269° West 171 197 2,100 -1,020 Descending Los Angeles Center
02:39PM 36.0667 -115.1500 270° West  Level FlightAware Approximate
02:46PM 36.0801 -115.1523 270° West  Level Estimated